sensor_id;sensor_type;location;lat;lon;timestamp;P1;durP1;ratioP1;P2;durP2;ratioP2
11279;SDS011;5696;50.928;6.960;2022-08-14T05:35:39;7.70;;;7.00;;
11279;SDS011;5696;50.928;6.960;2022-08-14T05:38:08;7.60;;;7.10;;
11279;SDS011;5696;50.928;6.960;2022-08-14T05:40:36;7.50;;;6.90;;
11279;SDS011;5696;50.928;6.960;2022-08-14T05:43:02;7.20;;;6.70;;
11279;SDS011;5696;50.928;6.960;2022-08-14T05:45:29;6.93;;;6.40;;
11279;SDS011;5696;50.928;6.960;2022-08-14T05:47:55;7.68;;;7.00;;
11279;SDS011;5696;50.928;6.960;2022-08-14T05:50:21;8.63;;;7.88;;
11279;SDS011;5696;50.928;6.960;2022-08-14T05:52:47;8.40;;;7.70;;
11279;SDS011;5696;50.928;6.960;2022-08-14T05:55:13;7.82;;;7.13;;
11279;SDS011;5696;50.928;6.960;2022-08-14T06:00:22;8.35;;;7.75;;
11279;SDS011;5696;50.928;6.960;2022-08-14T06:02:50;8.57;;;7.93;;
11279;SDS011;5696;50.928;6.960;2022-08-14T06:05:16;8.35;;;7.55;;
11279;SDS011;5696;50.928;6.960;2022-08-14T06:07:42;8.73;;;8.07;;
11279;SDS011;5696;50.928;6.960;2022-08-14T06:10:09;7.63;;;7.03;;
11279;SDS011;5696;50.928;6.960;2022-08-14T06:12:35;7.35;;;6.85;;
11279;SDS011;5696;50.928;6.960;2022-08-14T06:15:02;8.00;;;7.25;;
11279;SDS011;5696;50.928;6.960;2022-08-14T06:17:30;10.30;;;9.30;;
11279;SDS011;5696;50.928;6.960;2022-08-14T06:19:55;8.70;;;7.82;;
11279;SDS011;5696;50.928;6.960;2022-08-14T06:22:21;10.82;;;9.65;;
11279;SDS011;5696;50.928;6.960;2022-08-14T06:24:47;7.97;;;6.95;;
11279;SDS011;5696;50.928;6.960;2022-08-14T06:27:12;7.50;;;6.90;;
11279;SDS011;5696;50.928;6.960;2022-08-14T06:29:48;8.18;;;7.47;;
11279;SDS011;5696;50.928;6.960;2022-08-14T06:32:14;9.55;;;8.70;;
11279;SDS011;5696;50.928;6.960;2022-08-14T06:34:40;7.85;;;7.35;;
11279;SDS011;5696;50.928;6.960;2022-08-14T06:37:05;7.90;;;7.25;;
11279;SDS011;5696;50.928;6.960;2022-08-14T06:39:31;7.97;;;7.30;;
11279;SDS011;5696;50.928;6.960;2022-08-14T06:41:58;7.30;;;6.68;;
11279;SDS011;5696;50.928;6.960;2022-08-14T06:44:24;7.45;;;6.78;;
11279;SDS011;5696;50.928;6.960;2022-08-14T06:46:50;7.10;;;6.60;;
11279;SDS011;5696;50.928;6.960;2022-08-14T06:49:15;7.57;;;6.97;;
11279;SDS011;5696;50.928;6.960;2022-08-14T06:51:41;7.82;;;6.40;;
11279;SDS011;5696;50.928;6.960;2022-08-14T06:54:11;6.82;;;6.40;;
11279;SDS011;5696;50.928;6.960;2022-08-14T06:56:37;7.20;;;6.63;;
11279;SDS011;5696;50.928;6.960;2022-08-14T06:59:04;7.75;;;7.10;;
11279;SDS011;5696;50.928;6.960;2022-08-14T07:01:29;8.00;;;7.20;;
11279;SDS011;5696;50.928;6.960;2022-08-14T07:04:13;7.60;;;7.10;;
11279;SDS011;5696;50.928;6.960;2022-08-14T07:07:02;7.30;;;6.60;;
11279;SDS011;5696;50.928;6.960;2022-08-14T07:09:28;7.40;;;6.90;;
11279;SDS011;5696;50.928;6.960;2022-08-14T07:11:54;7.47;;;6.97;;
11279;SDS011;5696;50.928;6.960;2022-08-14T07:14:19;7.57;;;6.90;;
11279;SDS011;5696;50.928;6.960;2022-08-14T07:16:45;7.50;;;7.00;;
11279;SDS011;5696;50.928;6.960;2022-08-14T07:19:11;7.72;;;6.97;;
11279;SDS011;5696;50.928;6.960;2022-08-14T07:21:37;7.95;;;7.35;;
11279;SDS011;5696;50.928;6.960;2022-08-14T07:24:03;7.80;;;7.20;;
11279;SDS011;5696;50.928;6.960;2022-08-14T07:26:29;8.55;;;7.65;;
11279;SDS011;5696;50.928;6.960;2022-08-14T07:28:55;7.60;;;7.00;;
11279;SDS011;5696;50.928;6.960;2022-08-14T07:31:20;7.65;;;7.05;;
11279;SDS011;5696;50.928;6.960;2022-08-14T07:33:46;7.80;;;7.10;;
11279;SDS011;5696;50.928;6.960;2022-08-14T07:36:13;8.07;;;7.32;;
11279;SDS011;5696;50.928;6.960;2022-08-14T07:38:40;7.72;;;7.20;;
11279;SDS011;5696;50.928;6.960;2022-08-14T07:41:07;8.15;;;7.30;;
11279;SDS011;5696;50.928;6.960;2022-08-14T07:43:34;7.80;;;7.10;;
11279;SDS011;5696;50.928;6.960;2022-08-14T07:46:09;7.30;;;6.80;;
11279;SDS011;5696;50.928;6.960;2022-08-14T07:48:38;8.15;;;7.45;;
11279;SDS011;5696;50.928;6.960;2022-08-14T07:51:06;8.05;;;7.45;;
11279;SDS011;5696;50.928;6.960;2022-08-14T07:53:32;8.25;;;7.55;;
11279;SDS011;5696;50.928;6.960;2022-08-14T07:55:57;8.00;;;7.20;;
11279;SDS011;5696;50.928;6.960;2022-08-14T07:58:24;7.93;;;7.28;;
11279;SDS011;5696;50.928;6.960;2022-08-14T08:01:00;7.30;;;6.68;;
11279;SDS011;5696;50.928;6.960;2022-08-14T08:03:26;8.05;;;7.35;;
11279;SDS011;5696;50.928;6.960;2022-08-14T08:05:53;8.80;;;8.20;;
11279;SDS011;5696;50.928;6.960;2022-08-14T08:08:19;8.85;;;8.07;;
11279;SDS011;5696;50.928;6.960;2022-08-14T08:10:45;7.45;;;6.85;;
11279;SDS011;5696;50.928;6.960;2022-08-14T08:13:15;8.63;;;7.93;;
11279;SDS011;5696;50.928;6.960;2022-08-14T08:15:46;7.40;;;6.90;;
11279;SDS011;5696;50.928;6.960;2022-08-14T08:18:14;8.02;;;7.05;;
11279;SDS011;5696;50.928;6.960;2022-08-14T08:20:42;7.28;;;6.78;;
11279;SDS011;5696;50.928;6.960;2022-08-14T08:23:12;7.88;;;7.18;;
11279;SDS011;5696;50.928;6.960;2022-08-14T08:25:39;7.55;;;6.95;;
11279;SDS011;5696;50.928;6.960;2022-08-14T08:28:13;8.05;;;7.35;;
11279;SDS011;5696;50.928;6.960;2022-08-14T08:33:21;7.75;;;7.15;;
11279;SDS011;5696;50.928;6.960;2022-08-14T08:35:48;7.38;;;6.78;;
11279;SDS011;5696;50.928;6.960;2022-08-14T08:38:15;7.68;;;7.07;;
11279;SDS011;5696;50.928;6.960;2022-08-14T08:40:48;7.68;;;7.05;;
11279;SDS011;5696;50.928;6.960;2022-08-14T08:43:25;7.85;;;7.20;;
11279;SDS011;5696;50.928;6.960;2022-08-14T08:48:21;7.30;;;6.70;;
11279;SDS011;5696;50.928;6.960;2022-08-14T08:50:47;7.78;;;7.18;;
11279;SDS011;5696;50.928;6.960;2022-08-14T08:53:13;7.68;;;7.07;;
11279;SDS011;5696;50.928;6.960;2022-08-14T08:55:40;7.13;;;6.55;;
11279;SDS011;5696;50.928;6.960;2022-08-14T08:58:12;7.32;;;6.60;;
11279;SDS011;5696;50.928;6.960;2022-08-14T09:00:41;7.72;;;7.03;;
11279;SDS011;5696;50.928;6.960;2022-08-14T09:03:10;7.10;;;6.70;;
11279;SDS011;5696;50.928;6.960;2022-08-14T09:05:49;7.82;;;7.22;;
11279;SDS011;5696;50.928;6.960;2022-08-14T09:08:31;6.80;;;6.20;;
11279;SDS011;5696;50.928;6.960;2022-08-14T09:11:07;7.07;;;6.47;;
11279;SDS011;5696;50.928;6.960;2022-08-14T09:13:36;7.72;;;7.05;;
11279;SDS011;5696;50.928;6.960;2022-08-14T09:16:02;7.72;;;7.07;;
11279;SDS011;5696;50.928;6.960;2022-08-14T09:18:28;6.57;;;6.18;;
11279;SDS011;5696;50.928;6.960;2022-08-14T09:20:54;7.40;;;6.80;;
11279;SDS011;5696;50.928;6.960;2022-08-14T09:23:21;6.90;;;6.40;;
11279;SDS011;5696;50.928;6.960;2022-08-14T09:25:48;6.72;;;6.22;;
11279;SDS011;5696;50.928;6.960;2022-08-14T09:28:16;6.10;;;5.70;;
11279;SDS011;5696;50.928;6.960;2022-08-14T09:30:44;6.25;;;5.65;;
11279;SDS011;5696;50.928;6.960;2022-08-14T09:45:19;5.70;;;5.30;;
11279;SDS011;5696;50.928;6.960;2022-08-14T09:50:19;6.60;;;6.00;;
11279;SDS011;5696;50.928;6.960;2022-08-14T09:53:04;6.05;;;5.57;;
11279;SDS011;5696;50.928;6.960;2022-08-14T09:55:31;5.32;;;4.90;;
11279;SDS011;5696;50.928;6.960;2022-08-14T10:00:52;4.93;;;4.50;;
11279;SDS011;5696;50.928;6.960;2022-08-14T10:03:31;5.53;;;4.78;;
11279;SDS011;5696;50.928;6.960;2022-08-14T10:08:38;37.45;;;18.23;;
11279;SDS011;5696;50.928;6.960;2022-08-14T10:11:17;6.88;;;6.00;;
11279;SDS011;5696;50.928;6.960;2022-08-14T10:13:48;5.88;;;5.38;;
11279;SDS011;5696;50.928;6.960;2022-08-14T10:16:18;4.97;;;4.57;;
11279;SDS011;5696;50.928;6.960;2022-08-14T10:19:00;5.18;;;4.85;;
11279;SDS011;5696;50.928;6.960;2022-08-14T10:21:28;4.90;;;4.60;;
11279;SDS011;5696;50.928;6.960;2022-08-14T10:23:54;4.82;;;4.40;;
11279;SDS011;5696;50.928;6.960;2022-08-14T10:26:22;4.90;;;4.50;;
11279;SDS011;5696;50.928;6.960;2022-08-14T10:28:50;5.43;;;4.85;;
11279;SDS011;5696;50.928;6.960;2022-08-14T10:34:00;5.85;;;4.57;;
11279;SDS011;5696;50.928;6.960;2022-08-14T10:36:35;4.70;;;4.40;;
11279;SDS011;5696;50.928;6.960;2022-08-14T10:39:17;5.30;;;4.82;;
11279;SDS011;5696;50.928;6.960;2022-08-14T10:41:45;6.95;;;5.20;;
11279;SDS011;5696;50.928;6.960;2022-08-14T10:44:12;5.03;;;4.53;;
11279;SDS011;5696;50.928;6.960;2022-08-14T10:46:50;5.03;;;4.63;;
11279;SDS011;5696;50.928;6.960;2022-08-14T10:49:18;4.28;;;3.90;;
11279;SDS011;5696;50.928;6.960;2022-08-14T10:54:29;4.20;;;3.80;;
11279;SDS011;5696;50.928;6.960;2022-08-14T10:57:14;4.70;;;4.30;;
11279;SDS011;5696;50.928;6.960;2022-08-14T10:59:43;4.30;;;4.00;;
11279;SDS011;5696;50.928;6.960;2022-08-14T11:07:29;4.72;;;4.40;;
11279;SDS011;5696;50.928;6.960;2022-08-14T11:09:56;4.50;;;4.20;;
11279;SDS011;5696;50.928;6.960;2022-08-14T11:12:38;4.60;;;4.22;;
11279;SDS011;5696;50.928;6.960;2022-08-14T11:15:18;4.53;;;4.07;;
11279;SDS011;5696;50.928;6.960;2022-08-14T11:17:45;4.75;;;4.35;;
11279;SDS011;5696;50.928;6.960;2022-08-14T11:20:13;4.32;;;4.00;;
11279;SDS011;5696;50.928;6.960;2022-08-14T11:22:40;4.57;;;4.28;;
11279;SDS011;5696;50.928;6.960;2022-08-14T11:25:07;4.28;;;4.05;;
11279;SDS011;5696;50.928;6.960;2022-08-14T11:27:35;4.40;;;4.10;;
11279;SDS011;5696;50.928;6.960;2022-08-14T11:30:04;4.75;;;3.60;;
11279;SDS011;5696;50.928;6.960;2022-08-14T11:32:32;3.80;;;3.60;;
11279;SDS011;5696;50.928;6.960;2022-08-14T11:34:59;4.00;;;3.70;;
11279;SDS011;5696;50.928;6.960;2022-08-14T11:37:26;4.05;;;3.75;;
11279;SDS011;5696;50.928;6.960;2022-08-14T11:39:56;5.53;;;5.03;;
11279;SDS011;5696;50.928;6.960;2022-08-14T11:42:22;3.95;;;3.75;;
11279;SDS011;5696;50.928;6.960;2022-08-14T11:45:03;3.70;;;3.40;;
11279;SDS011;5696;50.928;6.960;2022-08-14T11:47:32;4.22;;;3.83;;
11279;SDS011;5696;50.928;6.960;2022-08-14T11:49:57;4.10;;;3.70;;
11279;SDS011;5696;50.928;6.960;2022-08-14T11:52:32;4.10;;;3.80;;
11279;SDS011;5696;50.928;6.960;2022-08-14T11:54:58;4.40;;;4.10;;
11279;SDS011;5696;50.928;6.960;2022-08-14T11:57:25;4.40;;;4.00;;
11279;SDS011;5696;50.928;6.960;2022-08-14T12:00:01;5.72;;;3.78;;
11279;SDS011;5696;50.928;6.960;2022-08-14T12:02:32;4.03;;;3.72;;
11279;SDS011;5696;50.928;6.960;2022-08-14T12:04:58;4.30;;;4.00;;
11279;SDS011;5696;50.928;6.960;2022-08-14T12:07:24;4.57;;;4.28;;
11279;SDS011;5696;50.928;6.960;2022-08-14T12:09:54;4.70;;;4.20;;
11279;SDS011;5696;50.928;6.960;2022-08-14T12:12:24;4.18;;;3.88;;
11279;SDS011;5696;50.928;6.960;2022-08-14T12:14:53;5.35;;;3.90;;
11279;SDS011;5696;50.928;6.960;2022-08-14T12:17:27;4.28;;;3.97;;
11279;SDS011;5696;50.928;6.960;2022-08-14T12:19:56;3.83;;;3.53;;
11279;SDS011;5696;50.928;6.960;2022-08-14T12:25:06;4.22;;;3.88;;
11279;SDS011;5696;50.928;6.960;2022-08-14T12:27:34;4.38;;;3.97;;
11279;SDS011;5696;50.928;6.960;2022-08-14T12:30:00;3.88;;;3.67;;
11279;SDS011;5696;50.928;6.960;2022-08-14T12:32:25;4.25;;;3.95;;
11279;SDS011;5696;50.928;6.960;2022-08-14T12:35:02;4.00;;;3.75;;
11279;SDS011;5696;50.928;6.960;2022-08-14T12:37:29;4.30;;;3.90;;
11279;SDS011;5696;50.928;6.960;2022-08-14T12:40:06;4.13;;;3.83;;
11279;SDS011;5696;50.928;6.960;2022-08-14T12:42:40;3.95;;;3.72;;
11279;SDS011;5696;50.928;6.960;2022-08-14T12:45:07;3.90;;;3.60;;
11279;SDS011;5696;50.928;6.960;2022-08-14T12:47:36;3.53;;;3.33;;
11279;SDS011;5696;50.928;6.960;2022-08-14T12:50:06;4.88;;;3.85;;
11279;SDS011;5696;50.928;6.960;2022-08-14T12:52:35;4.20;;;3.90;;
11279;SDS011;5696;50.928;6.960;2022-08-14T12:55:06;4.43;;;4.03;;
11279;SDS011;5696;50.928;6.960;2022-08-14T12:57:38;4.47;;;4.10;;
11279;SDS011;5696;50.928;6.960;2022-08-14T13:02:38;3.78;;;3.58;;
11279;SDS011;5696;50.928;6.960;2022-08-14T13:05:05;4.93;;;4.53;;
11279;SDS011;5696;50.928;6.960;2022-08-14T13:07:33;4.20;;;3.97;;
11279;SDS011;5696;50.928;6.960;2022-08-14T13:10:02;4.68;;;4.28;;
11279;SDS011;5696;50.928;6.960;2022-08-14T13:12:28;4.75;;;3.80;;
11279;SDS011;5696;50.928;6.960;2022-08-14T13:14:56;3.90;;;3.70;;
11279;SDS011;5696;50.928;6.960;2022-08-14T13:17:25;5.38;;;4.97;;
11279;SDS011;5696;50.928;6.960;2022-08-14T13:19:54;4.78;;;3.95;;
11279;SDS011;5696;50.928;6.960;2022-08-14T13:22:24;3.85;;;3.60;;
11279;SDS011;5696;50.928;6.960;2022-08-14T13:24:53;4.00;;;3.70;;
11279;SDS011;5696;50.928;6.960;2022-08-14T13:27:21;4.00;;;3.80;;
11279;SDS011;5696;50.928;6.960;2022-08-14T13:29:48;3.50;;;3.30;;
11279;SDS011;5696;50.928;6.960;2022-08-14T13:32:17;3.85;;;3.55;;
11279;SDS011;5696;50.928;6.960;2022-08-14T13:34:46;3.45;;;3.25;;
11279;SDS011;5696;50.928;6.960;2022-08-14T13:37:15;4.10;;;3.80;;
11279;SDS011;5696;50.928;6.960;2022-08-14T13:39:49;3.80;;;3.50;;
11279;SDS011;5696;50.928;6.960;2022-08-14T13:42:19;5.00;;;3.95;;
11279;SDS011;5696;50.928;6.960;2022-08-14T13:44:50;3.92;;;3.72;;
11279;SDS011;5696;50.928;6.960;2022-08-14T13:47:22;4.05;;;3.70;;
11279;SDS011;5696;50.928;6.960;2022-08-14T13:49:53;3.30;;;3.03;;
11279;SDS011;5696;50.928;6.960;2022-08-14T13:52:21;3.60;;;3.40;;
11279;SDS011;5696;50.928;6.960;2022-08-14T13:54:48;4.93;;;4.10;;
11279;SDS011;5696;50.928;6.960;2022-08-14T13:57:15;3.90;;;3.70;;
11279;SDS011;5696;50.928;6.960;2022-08-14T13:59:48;4.82;;;4.32;;
11279;SDS011;5696;50.928;6.960;2022-08-14T14:02:16;4.10;;;3.80;;
11279;SDS011;5696;50.928;6.960;2022-08-14T14:04:46;3.92;;;3.67;;
11279;SDS011;5696;50.928;6.960;2022-08-14T14:07:14;3.63;;;3.42;;
11279;SDS011;5696;50.928;6.960;2022-08-14T14:09:42;3.80;;;3.50;;
11279;SDS011;5696;50.928;6.960;2022-08-14T14:12:10;3.72;;;3.53;;
11279;SDS011;5696;50.928;6.960;2022-08-14T14:14:37;3.03;;;2.83;;
11279;SDS011;5696;50.928;6.960;2022-08-14T14:17:05;3.10;;;3.00;;
11279;SDS011;5696;50.928;6.960;2022-08-14T14:19:41;4.32;;;3.50;;
11279;SDS011;5696;50.928;6.960;2022-08-14T14:22:11;3.78;;;3.47;;
11279;SDS011;5696;50.928;6.960;2022-08-14T14:24:40;3.80;;;3.60;;
11279;SDS011;5696;50.928;6.960;2022-08-14T14:27:07;3.92;;;3.50;;
11279;SDS011;5696;50.928;6.960;2022-08-14T14:29:34;3.50;;;3.30;;
11279;SDS011;5696;50.928;6.960;2022-08-14T14:32:00;3.58;;;3.38;;
11279;SDS011;5696;50.928;6.960;2022-08-14T14:34:27;3.35;;;3.15;;
11279;SDS011;5696;50.928;6.960;2022-08-14T14:36:54;3.92;;;3.67;;
11279;SDS011;5696;50.928;6.960;2022-08-14T14:39:22;3.50;;;3.30;;
11279;SDS011;5696;50.928;6.960;2022-08-14T14:41:51;3.45;;;3.22;;
11279;SDS011;5696;50.928;6.960;2022-08-14T14:44:20;4.30;;;2.97;;
11279;SDS011;5696;50.928;6.960;2022-08-14T14:46:49;2.80;;;2.70;;
11279;SDS011;5696;50.928;6.960;2022-08-14T14:49:15;2.80;;;2.70;;
11279;SDS011;5696;50.928;6.960;2022-08-14T14:51:43;4.10;;;2.88;;
11279;SDS011;5696;50.928;6.960;2022-08-14T14:54:10;2.95;;;2.75;;
11279;SDS011;5696;50.928;6.960;2022-08-14T14:56:40;3.60;;;2.80;;
11279;SDS011;5696;50.928;6.960;2022-08-14T14:59:06;2.78;;;2.60;;
11279;SDS011;5696;50.928;6.960;2022-08-14T15:01:34;2.83;;;2.72;;
11279;SDS011;5696;50.928;6.960;2022-08-14T15:04:01;3.83;;;3.15;;
11279;SDS011;5696;50.928;6.960;2022-08-14T15:06:28;3.08;;;2.90;;
11279;SDS011;5696;50.928;6.960;2022-08-14T15:08:55;3.50;;;3.20;;
11279;SDS011;5696;50.928;6.960;2022-08-14T15:11:21;3.30;;;3.00;;
11279;SDS011;5696;50.928;6.960;2022-08-14T15:13:47;2.80;;;2.60;;
11279;SDS011;5696;50.928;6.960;2022-08-14T15:16:13;3.38;;;3.17;;
11279;SDS011;5696;50.928;6.960;2022-08-14T15:18:39;2.97;;;2.80;;
11279;SDS011;5696;50.928;6.960;2022-08-14T15:21:05;3.42;;;3.22;;
11279;SDS011;5696;50.928;6.960;2022-08-14T15:23:31;3.83;;;3.53;;
11279;SDS011;5696;50.928;6.960;2022-08-14T15:25:58;4.10;;;3.45;;
11279;SDS011;5696;50.928;6.960;2022-08-14T15:28:24;3.40;;;3.20;;
11279;SDS011;5696;50.928;6.960;2022-08-14T15:30:50;3.50;;;3.30;;
11279;SDS011;5696;50.928;6.960;2022-08-14T15:33:17;3.50;;;3.30;;
11279;SDS011;5696;50.928;6.960;2022-08-14T15:36:04;3.75;;;3.50;;
11279;SDS011;5696;50.928;6.960;2022-08-14T15:38:31;3.95;;;3.75;;
11279;SDS011;5696;50.928;6.960;2022-08-14T15:40:57;3.83;;;3.50;;
11279;SDS011;5696;50.928;6.960;2022-08-14T15:43:26;3.60;;;3.40;;
11279;SDS011;5696;50.928;6.960;2022-08-14T15:45:53;4.13;;;3.78;;
11279;SDS011;5696;50.928;6.960;2022-08-14T15:48:20;3.35;;;3.10;;
11279;SDS011;5696;50.928;6.960;2022-08-14T15:50:45;4.18;;;3.20;;
11279;SDS011;5696;50.928;6.960;2022-08-14T15:53:12;3.47;;;3.20;;
11279;SDS011;5696;50.928;6.960;2022-08-14T15:55:38;3.47;;;3.17;;
11279;SDS011;5696;50.928;6.960;2022-08-14T15:58:05;4.20;;;3.80;;
11279;SDS011;5696;50.928;6.960;2022-08-14T16:00:31;3.75;;;3.55;;
11279;SDS011;5696;50.928;6.960;2022-08-14T16:03:17;3.60;;;3.40;;
11279;SDS011;5696;50.928;6.960;2022-08-14T16:05:45;3.85;;;3.22;;
11279;SDS011;5696;50.928;6.960;2022-08-14T16:08:10;4.13;;;3.83;;
11279;SDS011;5696;50.928;6.960;2022-08-14T16:10:38;3.45;;;3.25;;
11279;SDS011;5696;50.928;6.960;2022-08-14T16:13:04;3.95;;;3.65;;
11279;SDS011;5696;50.928;6.960;2022-08-14T16:15:30;3.53;;;3.33;;
11279;SDS011;5696;50.928;6.960;2022-08-14T16:17:56;3.55;;;3.35;;
11279;SDS011;5696;50.928;6.960;2022-08-14T16:20:23;3.72;;;3.42;;
11279;SDS011;5696;50.928;6.960;2022-08-14T16:22:56;4.05;;;3.70;;
11279;SDS011;5696;50.928;6.960;2022-08-14T16:25:22;3.50;;;3.30;;
11279;SDS011;5696;50.928;6.960;2022-08-14T16:27:48;4.07;;;3.78;;
11279;SDS011;5696;50.928;6.960;2022-08-14T16:30:15;3.70;;;3.50;;
11279;SDS011;5696;50.928;6.960;2022-08-14T16:32:41;4.10;;;3.80;;
11279;SDS011;5696;50.928;6.960;2022-08-14T16:35:10;3.92;;;3.63;;
11279;SDS011;5696;50.928;6.960;2022-08-14T16:37:38;4.03;;;3.72;;
11279;SDS011;5696;50.928;6.960;2022-08-14T16:40:10;4.53;;;4.03;;
11279;SDS011;5696;50.928;6.960;2022-08-14T16:42:40;4.97;;;4.45;;
11279;SDS011;5696;50.928;6.960;2022-08-14T16:45:09;5.43;;;4.88;;
11279;SDS011;5696;50.928;6.960;2022-08-14T16:47:36;4.70;;;4.22;;
11279;SDS011;5696;50.928;6.960;2022-08-14T16:50:03;4.80;;;4.45;;
11279;SDS011;5696;50.928;6.960;2022-08-14T16:52:30;4.35;;;3.95;;
11279;SDS011;5696;50.928;6.960;2022-08-14T16:54:55;4.38;;;4.00;;
11279;SDS011;5696;50.928;6.960;2022-08-14T16:57:22;4.97;;;4.20;;
11279;SDS011;5696;50.928;6.960;2022-08-14T16:59:55;4.55;;;4.13;;
11279;SDS011;5696;50.928;6.960;2022-08-14T17:02:36;5.03;;;4.53;;
11279;SDS011;5696;50.928;6.960;2022-08-14T17:05:14;4.95;;;4.55;;
11279;SDS011;5696;50.928;6.960;2022-08-14T17:07:40;4.53;;;4.10;;
11279;SDS011;5696;50.928;6.960;2022-08-14T17:10:06;4.95;;;4.57;;
11279;SDS011;5696;50.928;6.960;2022-08-14T17:12:32;4.53;;;4.20;;
11279;SDS011;5696;50.928;6.960;2022-08-14T17:14:59;4.50;;;3.90;;
11279;SDS011;5696;50.928;6.960;2022-08-14T17:20:03;5.15;;;4.20;;
11279;SDS011;5696;50.928;6.960;2022-08-14T17:22:48;5.07;;;4.65;;
11279;SDS011;5696;50.928;6.960;2022-08-14T17:25:28;4.85;;;4.45;;
11279;SDS011;5696;50.928;6.960;2022-08-14T17:33:24;5.15;;;4.70;;
11279;SDS011;5696;50.928;6.960;2022-08-14T17:36:09;7.90;;;4.55;;
11279;SDS011;5696;50.928;6.960;2022-08-14T17:38:55;5.22;;;4.72;;
11279;SDS011;5696;50.928;6.960;2022-08-14T17:41:22;6.25;;;5.65;;
11279;SDS011;5696;50.928;6.960;2022-08-14T17:44:10;8.40;;;7.60;;
11279;SDS011;5696;50.928;6.960;2022-08-14T17:46:40;7.65;;;6.85;;
11279;SDS011;5696;50.928;6.960;2022-08-14T17:49:30;7.03;;;6.38;;
11279;SDS011;5696;50.928;6.960;2022-08-14T17:54:35;5.80;;;5.13;;
11279;SDS011;5696;50.928;6.960;2022-08-14T17:57:14;5.43;;;5.03;;
11279;SDS011;5696;50.928;6.960;2022-08-14T17:59:45;5.10;;;4.60;;
11279;SDS011;5696;50.928;6.960;2022-08-14T18:02:15;5.18;;;4.78;;
11279;SDS011;5696;50.928;6.960;2022-08-14T18:04:42;5.20;;;4.55;;
11279;SDS011;5696;50.928;6.960;2022-08-14T18:07:10;5.93;;;5.30;;
11279;SDS011;5696;50.928;6.960;2022-08-14T18:09:38;6.70;;;5.45;;
11279;SDS011;5696;50.928;6.960;2022-08-14T18:12:06;6.00;;;5.43;;
11279;SDS011;5696;50.928;6.960;2022-08-14T18:14:34;7.07;;;4.88;;
11279;SDS011;5696;50.928;6.960;2022-08-14T18:17:02;6.30;;;5.15;;
11279;SDS011;5696;50.928;6.960;2022-08-14T18:19:34;5.40;;;4.90;;
11279;SDS011;5696;50.928;6.960;2022-08-14T18:22:02;5.25;;;4.85;;
11279;SDS011;5696;50.928;6.960;2022-08-14T18:24:32;5.80;;;5.00;;
11279;SDS011;5696;50.928;6.960;2022-08-14T18:29:24;4.78;;;4.38;;
11279;SDS011;5696;50.928;6.960;2022-08-14T18:31:52;6.18;;;5.03;;
11279;SDS011;5696;50.928;6.960;2022-08-14T18:34:18;4.80;;;4.40;;
11279;SDS011;5696;50.928;6.960;2022-08-14T18:39:22;5.03;;;4.63;;
11279;SDS011;5696;50.928;6.960;2022-08-14T19:10:43;7.47;;;5.88;;
11279;SDS011;5696;50.928;6.960;2022-08-14T19:13:10;6.63;;;5.93;;
11279;SDS011;5696;50.928;6.960;2022-08-14T19:15:44;7.45;;;6.72;;
11279;SDS011;5696;50.928;6.960;2022-08-14T19:18:21;7.53;;;6.63;;
11279;SDS011;5696;50.928;6.960;2022-08-14T19:20:59;6.45;;;5.95;;
11279;SDS011;5696;50.928;6.960;2022-08-14T19:23:37;6.40;;;5.80;;
11279;SDS011;5696;50.928;6.960;2022-08-14T19:26:18;6.55;;;6.00;;
11279;SDS011;5696;50.928;6.960;2022-08-14T19:28:51;5.43;;;5.03;;
11279;SDS011;5696;50.928;6.960;2022-08-14T19:33:53;8.05;;;5.38;;
11279;SDS011;5696;50.928;6.960;2022-08-14T19:36:21;6.70;;;5.35;;
11279;SDS011;5696;50.928;6.960;2022-08-14T19:41:36;6.20;;;5.53;;
11279;SDS011;5696;50.928;6.960;2022-08-14T19:44:15;6.30;;;5.68;;
11279;SDS011;5696;50.928;6.960;2022-08-14T19:46:49;7.75;;;7.00;;
11279;SDS011;5696;50.928;6.960;2022-08-14T19:49:17;7.10;;;6.25;;
11279;SDS011;5696;50.928;6.960;2022-08-14T19:51:45;9.65;;;5.88;;
11279;SDS011;5696;50.928;6.960;2022-08-14T19:54:11;6.63;;;6.07;;
11279;SDS011;5696;50.928;6.960;2022-08-14T19:56:40;7.85;;;5.68;;
11279;SDS011;5696;50.928;6.960;2022-08-14T19:59:08;6.45;;;5.85;;
11279;SDS011;5696;50.928;6.960;2022-08-14T20:01:35;7.35;;;6.75;;
11279;SDS011;5696;50.928;6.960;2022-08-14T20:04:03;8.18;;;5.80;;
11279;SDS011;5696;50.928;6.960;2022-08-14T20:06:35;9.50;;;6.85;;
11279;SDS011;5696;50.928;6.960;2022-08-14T20:09:07;5.82;;;5.32;;
11279;SDS011;5696;50.928;6.960;2022-08-14T20:11:36;6.85;;;6.25;;
11279;SDS011;5696;50.928;6.960;2022-08-14T20:14:07;9.05;;;7.90;;
11279;SDS011;5696;50.928;6.960;2022-08-14T20:16:45;6.18;;;5.68;;
11279;SDS011;5696;50.928;6.960;2022-08-14T20:19:17;5.85;;;5.40;;
11279;SDS011;5696;50.928;6.960;2022-08-14T20:21:48;7.28;;;6.57;;
11279;SDS011;5696;50.928;6.960;2022-08-14T20:24:24;8.32;;;6.05;;
11279;SDS011;5696;50.928;6.960;2022-08-14T20:35:22;7.72;;;6.93;;
11279;SDS011;5696;50.928;6.960;2022-08-14T20:38:03;7.63;;;6.45;;
11279;SDS011;5696;50.928;6.960;2022-08-14T20:40:34;7.43;;;6.70;;
11279;SDS011;5696;50.928;6.960;2022-08-14T20:43:13;7.07;;;6.45;;
11279;SDS011;5696;50.928;6.960;2022-08-14T20:46:29;9.75;;;6.90;;
11279;SDS011;5696;50.928;6.960;2022-08-14T20:51:36;8.98;;;6.95;;
11279;SDS011;5696;50.928;6.960;2022-08-14T20:54:11;8.75;;;6.93;;
11279;SDS011;5696;50.928;6.960;2022-08-14T20:56:43;8.43;;;7.13;;
11279;SDS011;5696;50.928;6.960;2022-08-14T20:59:17;7.28;;;6.63;;
11279;SDS011;5696;50.928;6.960;2022-08-14T21:01:48;9.18;;;6.18;;
11279;SDS011;5696;50.928;6.960;2022-08-14T21:07:06;7.57;;;6.60;;
11279;SDS011;5696;50.928;6.960;2022-08-14T21:09:42;8.50;;;7.55;;
11279;SDS011;5696;50.928;6.960;2022-08-14T21:12:10;8.20;;;7.15;;
11279;SDS011;5696;50.928;6.960;2022-08-14T21:14:35;7.53;;;6.47;;
11279;SDS011;5696;50.928;6.960;2022-08-14T21:17:01;7.38;;;6.72;;
11279;SDS011;5696;50.928;6.960;2022-08-14T21:19:27;9.40;;;6.72;;
11279;SDS011;5696;50.928;6.960;2022-08-14T21:21:54;8.18;;;7.07;;
11279;SDS011;5696;50.928;6.960;2022-08-14T21:24:21;7.40;;;6.70;;
11279;SDS011;5696;50.928;6.960;2022-08-14T21:26:48;10.75;;;9.38;;
11279;SDS011;5696;50.928;6.960;2022-08-14T21:29:17;9.88;;;6.72;;
11279;SDS011;5696;50.928;6.960;2022-08-14T21:31:45;8.02;;;7.22;;
11279;SDS011;5696;50.928;6.960;2022-08-14T21:34:11;7.82;;;6.60;;
11279;SDS011;5696;50.928;6.960;2022-08-14T21:36:39;6.88;;;6.18;;
11279;SDS011;5696;50.928;6.960;2022-08-14T21:39:06;6.28;;;5.70;;
11279;SDS011;5696;50.928;6.960;2022-08-14T21:41:49;10.73;;;9.25;;
11279;SDS011;5696;50.928;6.960;2022-08-14T21:44:16;7.32;;;5.80;;
11279;SDS011;5696;50.928;6.960;2022-08-14T21:46:45;6.25;;;5.75;;
11279;SDS011;5696;50.928;6.960;2022-08-14T21:49:17;5.75;;;5.35;;
11279;SDS011;5696;50.928;6.960;2022-08-14T21:51:47;6.20;;;5.70;;
11279;SDS011;5696;50.928;6.960;2022-08-14T21:54:18;8.50;;;7.72;;
11279;SDS011;5696;50.928;6.960;2022-08-14T21:56:47;8.85;;;7.90;;
11279;SDS011;5696;50.928;6.960;2022-08-14T21:59:13;9.90;;;8.90;;
11279;SDS011;5696;50.928;6.960;2022-08-14T22:01:42;10.07;;;9.05;;
11279;SDS011;5696;50.928;6.960;2022-08-14T22:04:08;6.80;;;5.85;;
11279;SDS011;5696;50.928;6.960;2022-08-14T22:06:34;6.55;;;5.90;;
